createdAt,value
2023-01-31T00:01:40.656Z,7.30
2023-01-31T00:04:11.831Z,7.28
2023-01-31T00:06:41.850Z,6.40
2023-01-31T00:09:10.180Z,6.05
2023-01-31T00:11:37.677Z,6.40
2023-01-31T00:14:06.120Z,7.05
2023-01-31T00:16:32.904Z,7.95
2023-01-31T00:18:59.676Z,6.22
2023-01-31T00:21:28.620Z,6.97
2023-01-31T00:23:56.970Z,6.25
2023-01-31T00:26:29.826Z,7.38
2023-01-31T00:28:58.141Z,7.18
2023-01-31T00:31:27.454Z,7.25
2023-01-31T00:33:55.947Z,6.40
2023-01-31T00:36:28.050Z,5.80
2023-01-31T00:38:57.091Z,6.22
2023-01-31T00:41:26.435Z,6.40
2023-01-31T00:43:53.174Z,6.50
2023-01-31T00:46:23.889Z,6.22
2023-01-31T00:48:51.170Z,7.00
2023-01-31T00:51:18.672Z,6.75
2023-01-31T00:53:45.768Z,6.30
2023-01-31T00:56:15.194Z,5.70
2023-01-31T00:58:42.566Z,7.03
2023-01-31T01:01:12.073Z,5.30
2023-01-31T01:03:39.957Z,6.68
2023-01-31T01:06:08.406Z,7.22
2023-01-31T01:08:36.403Z,5.88
2023-01-31T01:11:08.881Z,6.47
2023-01-31T01:13:36.501Z,6.30
2023-01-31T01:16:09.432Z,5.75
2023-01-31T01:18:36.853Z,6.90
2023-01-31T01:21:12.183Z,6.35
2023-01-31T01:23:40.196Z,5.15
2023-01-31T01:26:23.719Z,5.85
2023-01-31T01:28:51.363Z,5.70
2023-01-31T01:31:19.801Z,5.95
2023-01-31T01:33:48.327Z,5.68
2023-01-31T01:36:17.358Z,5.78
2023-01-31T01:38:45.688Z,6.00
2023-01-31T01:41:13.647Z,5.90
2023-01-31T01:43:50.837Z,5.60
2023-01-31T01:46:29.559Z,5.65
2023-01-31T01:49:20.008Z,5.05
2023-01-31T01:51:51.030Z,5.20
2023-01-31T01:54:27.092Z,6.32
2023-01-31T01:56:58.258Z,6.40
2023-01-31T01:59:53.345Z,5.22
2023-01-31T02:02:20.483Z,5.95
2023-01-31T02:04:50.133Z,5.65
2023-01-31T02:07:16.980Z,5.18
2023-01-31T02:10:04.581Z,5.28
2023-01-31T02:12:33.010Z,5.78
2023-01-31T02:15:00.338Z,4.82
2023-01-31T02:17:27.117Z,6.25
2023-01-31T02:20:19.666Z,5.20
2023-01-31T02:23:20.689Z,5.28
2023-01-31T02:26:24.736Z,5.20
2023-01-31T02:29:44.809Z,5.65
2023-01-31T02:32:52.387Z,5.72
2023-01-31T02:35:24.816Z,5.60
2023-01-31T02:37:51.542Z,4.50
2023-01-31T02:40:54.286Z,5.25
2023-01-31T02:44:04.344Z,4.90
2023-01-31T02:46:58.844Z,5.50
2023-01-31T02:49:36.062Z,4.82
2023-01-31T02:52:26.514Z,5.60
2023-01-31T02:55:33.674Z,5.07
2023-01-31T02:58:03.066Z,5.05
2023-01-31T03:00:33.949Z,5.38
2023-01-31T03:03:00.993Z,5.30
2023-01-31T03:05:27.732Z,6.05
2023-01-31T03:07:58.049Z,5.78
2023-01-31T03:10:57.643Z,5.45
2023-01-31T03:13:47.573Z,5.68
2023-01-31T03:16:55.802Z,5.07
2023-01-31T03:19:36.405Z,5.15
2023-01-31T03:22:18.348Z,5.10
2023-01-31T03:24:48.183Z,4.50
2023-01-31T03:27:16.804Z,6.13
2023-01-31T03:29:44.461Z,6.50
2023-01-31T03:32:25.335Z,5.18
2023-01-31T03:34:53.298Z,5.28
2023-01-31T03:37:40.973Z,5.35
2023-01-31T03:40:24.200Z,5.10
2023-01-31T03:43:13.993Z,5.50
2023-01-31T03:45:56.709Z,5.30
2023-01-31T03:48:28.283Z,6.65
2023-01-31T03:51:00.340Z,5.93
2023-01-31T03:53:36.141Z,6.15
2023-01-31T03:56:10.580Z,5.32
2023-01-31T03:58:44.030Z,6.07
2023-01-31T04:01:11.627Z,5.35
2023-01-31T04:03:59.401Z,4.50
2023-01-31T04:06:27.255Z,5.95
2023-01-31T04:08:54.299Z,6.30
2023-01-31T04:11:24.510Z,5.28
2023-01-31T04:13:51.366Z,4.93
2023-01-31T04:16:18.394Z,4.53
2023-01-31T04:18:45.142Z,4.88
2023-01-31T04:21:14.310Z,6.85
2023-01-31T04:23:41.085Z,5.55
2023-01-31T04:26:07.814Z,5.55
2023-01-31T04:28:34.550Z,6.03
2023-01-31T04:31:01.393Z,5.65
2023-01-31T04:33:28.137Z,5.05
2023-01-31T04:35:54.844Z,5.80
2023-01-31T04:38:21.564Z,6.90
2023-01-31T04:40:48.393Z,5.25
2023-01-31T04:43:15.118Z,6.30
2023-01-31T04:45:42.224Z,6.65
2023-01-31T04:48:09.160Z,6.65
2023-01-31T04:50:36.575Z,5.95
2023-01-31T04:53:04.664Z,7.38
2023-01-31T04:55:31.752Z,5.47
2023-01-31T04:57:58.558Z,5.30
2023-01-31T05:00:25.409Z,5.55
2023-01-31T05:02:52.980Z,6.32
2023-01-31T05:05:21.107Z,4.80
2023-01-31T05:07:48.049Z,5.40
2023-01-31T05:10:14.838Z,5.22
2023-01-31T05:12:41.635Z,5.30
2023-01-31T05:15:11.100Z,5.53
2023-01-31T05:17:38.533Z,4.72
2023-01-31T05:20:06.577Z,4.70
2023-01-31T05:22:33.860Z,4.30
2023-01-31T05:25:00.615Z,5.65
2023-01-31T05:27:27.502Z,4.82
2023-01-31T05:29:54.566Z,4.88
2023-01-31T05:32:21.541Z,5.55
2023-01-31T05:34:48.244Z,5.82
2023-01-31T05:37:14.994Z,5.70
2023-01-31T05:39:41.729Z,6.55
2023-01-31T05:42:08.429Z,7.32
2023-01-31T05:44:35.401Z,8.15
2023-01-31T05:47:02.550Z,9.40
2023-01-31T05:49:33.328Z,8.63
2023-01-31T05:52:00.942Z,8.90
2023-01-31T05:54:27.926Z,7.18
2023-01-31T05:56:54.708Z,6.18
2023-01-31T05:59:21.528Z,6.95
2023-01-31T06:01:48.303Z,7.50
2023-01-31T06:04:15.092Z,5.72
2023-01-31T06:06:42.479Z,5.03
2023-01-31T06:09:09.296Z,5.63
2023-01-31T06:11:36.065Z,6.00
2023-01-31T06:14:02.897Z,5.75
2023-01-31T06:16:29.662Z,5.97
2023-01-31T06:18:57.118Z,5.57
2023-01-31T06:21:23.913Z,5.25
2023-01-31T06:23:50.706Z,6.28
2023-01-31T06:26:17.437Z,8.10
2023-01-31T06:28:46.175Z,15.55
2023-01-31T06:31:13.623Z,10.50
2023-01-31T06:33:46.757Z,8.43
2023-01-31T06:36:14.783Z,7.95
2023-01-31T06:38:42.920Z,6.57
2023-01-31T06:41:09.654Z,5.60
2023-01-31T06:43:36.343Z,6.13
2023-01-31T06:46:03.165Z,5.97
2023-01-31T06:48:30.436Z,5.47
2023-01-31T06:50:57.524Z,5.35
2023-01-31T06:53:24.346Z,5.63
2023-01-31T06:55:51.030Z,6.97
2023-01-31T06:58:20.668Z,5.68
2023-01-31T07:00:47.901Z,6.15
2023-01-31T07:03:14.710Z,5.85
2023-01-31T07:05:41.518Z,5.82
2023-01-31T07:08:08.283Z,5.40
2023-01-31T07:10:35.116Z,6.18
2023-01-31T07:13:02.139Z,5.57
2023-01-31T07:15:28.992Z,4.82
2023-01-31T07:18:01.825Z,5.95
2023-01-31T07:20:28.693Z,5.63
2023-01-31T07:22:57.146Z,6.13
2023-01-31T07:25:24.627Z,6.05
2023-01-31T07:27:51.588Z,6.05
2023-01-31T07:30:18.669Z,7.18
2023-01-31T07:32:48.190Z,7.15
2023-01-31T07:35:15.072Z,5.35
2023-01-31T07:37:43.438Z,5.35
2023-01-31T07:40:12.461Z,5.22
2023-01-31T07:42:39.758Z,7.50
2023-01-31T07:45:33.190Z,6.35
2023-01-31T07:47:58.541Z,5.75
2023-01-31T07:50:27.181Z,8.55
2023-01-31T07:52:54.128Z,8.43
2023-01-31T07:55:21.283Z,7.53
2023-01-31T07:57:48.573Z,9.65
2023-01-31T08:00:33.969Z,7.90
2023-01-31T08:03:20.335Z,6.70
2023-01-31T08:05:47.896Z,6.20
2023-01-31T08:08:14.773Z,5.80
2023-01-31T08:10:41.601Z,5.70
2023-01-31T08:13:10.959Z,4.95
2023-01-31T08:15:37.648Z,5.22
2023-01-31T08:18:06.293Z,5.95
2023-01-31T08:20:33.691Z,7.35
2023-01-31T08:23:00.420Z,5.65
2023-01-31T08:25:32.042Z,5.28
2023-01-31T08:27:59.533Z,4.32
2023-01-31T08:30:27.418Z,4.13
2023-01-31T08:32:54.440Z,4.40
2023-01-31T08:35:21.848Z,3.53
2023-01-31T08:37:48.982Z,3.83
2023-01-31T08:40:15.898Z,3.60
2023-01-31T08:42:42.812Z,3.47
2023-01-31T08:45:10.060Z,4.07
2023-01-31T08:47:37.367Z,3.85
2023-01-31T08:50:04.546Z,3.70
2023-01-31T08:52:35.453Z,4.35
2023-01-31T08:55:02.428Z,4.25
2023-01-31T08:57:30.286Z,4.15
2023-01-31T08:59:57.134Z,4.00
2023-01-31T09:02:24.037Z,3.83
2023-01-31T09:04:50.806Z,3.33
2023-01-31T09:07:21.547Z,5.05
2023-01-31T09:09:49.500Z,4.65
2023-01-31T09:12:16.268Z,3.83
2023-01-31T09:14:42.981Z,4.28
2023-01-31T09:17:10.862Z,4.00
2023-01-31T09:19:38.827Z,3.75
2023-01-31T09:22:05.575Z,4.13
2023-01-31T09:24:32.404Z,3.95
2023-01-31T09:26:59.313Z,4.60
2023-01-31T09:29:26.144Z,4.05
2023-01-31T09:31:53.479Z,4.43
2023-01-31T09:34:21.803Z,4.43
2023-01-31T09:36:48.999Z,3.40
2023-01-31T09:39:15.705Z,4.43
2023-01-31T09:41:46.924Z,5.07
2023-01-31T09:44:19.441Z,4.00
2023-01-31T09:46:52.958Z,4.18
2023-01-31T09:49:33.763Z,4.78
2023-01-31T09:52:02.852Z,5.25
2023-01-31T09:54:39.984Z,4.45
2023-01-31T09:57:42.096Z,4.78
2023-01-31T10:00:25.850Z,4.03
2023-01-31T10:03:11.569Z,4.60
2023-01-31T10:05:59.829Z,4.00
2023-01-31T10:08:33.071Z,4.75
2023-01-31T10:11:03.022Z,4.45
2023-01-31T10:13:37.230Z,3.92
2023-01-31T10:16:13.824Z,5.43
2023-01-31T10:18:46.632Z,3.78
2023-01-31T10:21:22.881Z,4.57
2023-01-31T10:23:59.343Z,4.65
2023-01-31T10:26:32.400Z,3.83
2023-01-31T10:29:29.838Z,4.40
2023-01-31T10:32:01.237Z,4.10
2023-01-31T10:34:40.398Z,3.40
2023-01-31T10:37:35.596Z,3.97
2023-01-31T10:40:24.091Z,3.85
2023-01-31T10:43:00.545Z,3.40
2023-01-31T10:45:31.962Z,3.70
2023-01-31T10:48:07.759Z,2.70
2023-01-31T10:50:52.166Z,2.45
2023-01-31T10:53:27.947Z,3.47
2023-01-31T10:56:06.753Z,2.70
2023-01-31T10:58:35.348Z,3.25
2023-01-31T11:01:08.347Z,3.20
2023-01-31T11:03:35.542Z,3.67
2023-01-31T11:06:02.414Z,4.13
2023-01-31T11:08:40.530Z,5.07
2023-01-31T11:11:17.087Z,3.45
2023-01-31T11:13:59.023Z,4.15
2023-01-31T11:16:28.753Z,3.25
2023-01-31T11:18:55.543Z,3.40
2023-01-31T11:21:34.398Z,3.10
2023-01-31T11:24:06.864Z,3.27
2023-01-31T11:26:39.128Z,3.37
2023-01-31T11:29:27.910Z,3.83
2023-01-31T11:31:56.295Z,2.90
2023-01-31T11:34:33.615Z,3.27
2023-01-31T11:37:15.360Z,3.30
2023-01-31T11:39:42.194Z,3.67
2023-01-31T11:42:15.440Z,3.60
2023-01-31T11:45:05.263Z,3.30
2023-01-31T11:47:53.371Z,3.90
2023-01-31T11:50:34.293Z,3.23
2023-01-31T11:53:04.527Z,3.40
2023-01-31T11:55:37.476Z,3.00
2023-01-31T11:58:15.503Z,3.27
2023-01-31T12:01:01.020Z,3.73
2023-01-31T12:03:29.412Z,3.40
2023-01-31T12:06:07.190Z,3.43
2023-01-31T12:08:42.131Z,3.60
2023-01-31T12:11:20.592Z,3.10
2023-01-31T12:14:09.509Z,4.40
2023-01-31T12:16:37.536Z,3.73
2023-01-31T12:19:13.374Z,3.38
2023-01-31T12:22:02.771Z,3.10
2023-01-31T12:24:44.908Z,2.87
2023-01-31T12:27:47.725Z,2.97
2023-01-31T12:30:25.933Z,3.10
2023-01-31T12:33:10.595Z,3.13
2023-01-31T12:35:52.304Z,3.10
2023-01-31T12:38:28.354Z,2.63
2023-01-31T12:41:12.764Z,3.03
2023-01-31T12:43:42.494Z,2.83
2023-01-31T12:46:17.561Z,2.95
2023-01-31T12:49:03.201Z,3.03
2023-01-31T12:51:51.688Z,3.70
2023-01-31T12:54:43.199Z,3.15
2023-01-31T12:57:31.877Z,2.55
2023-01-31T13:00:08.292Z,2.83
2023-01-31T13:02:41.348Z,2.42
2023-01-31T13:05:19.134Z,3.85
2023-01-31T13:07:47.632Z,2.83
2023-01-31T13:10:43.288Z,2.72
2023-01-31T13:13:35.974Z,2.50
2023-01-31T13:16:29.195Z,4.85
2023-01-31T13:19:01.072Z,3.15
2023-01-31T13:21:33.569Z,2.67
2023-01-31T13:24:09.119Z,2.80
2023-01-31T13:26:43.334Z,2.72
2023-01-31T13:29:16.508Z,3.17
2023-01-31T13:31:57.917Z,2.63
2023-01-31T13:34:34.986Z,2.78
2023-01-31T13:37:05.829Z,2.70
2023-01-31T13:39:59.251Z,3.00
2023-01-31T13:42:26.434Z,3.40
2023-01-31T13:44:54.396Z,2.35
2023-01-31T13:47:27.119Z,3.30
2023-01-31T13:50:09.407Z,3.03
2023-01-31T13:52:53.085Z,2.55
2023-01-31T13:55:38.242Z,2.63
2023-01-31T13:58:07.947Z,2.85
2023-01-31T14:00:45.456Z,2.72
2023-01-31T14:03:15.872Z,2.78
2023-01-31T14:05:45.666Z,3.50
2023-01-31T14:08:27.548Z,2.83
2023-01-31T14:11:00.215Z,2.85
2023-01-31T14:13:47.147Z,2.95
2023-01-31T14:16:35.948Z,3.35
2023-01-31T14:19:04.050Z,2.70
2023-01-31T14:21:30.683Z,3.10
2023-01-31T14:24:02.203Z,2.65
2023-01-31T14:26:44.144Z,2.83
2023-01-31T14:29:19.888Z,2.63
2023-01-31T14:31:48.140Z,3.55
2023-01-31T14:34:21.222Z,3.10
2023-01-31T14:37:31.208Z,4.07
2023-01-31T14:40:00.848Z,3.13
2023-01-31T14:42:33.885Z,2.60
2023-01-31T14:45:23.737Z,2.65
2023-01-31T14:47:50.496Z,3.10
2023-01-31T14:50:40.521Z,3.38
2023-01-31T14:53:23.125Z,3.20
2023-01-31T14:56:17.111Z,2.95
2023-01-31T14:58:47.334Z,3.28
2023-01-31T15:01:18.635Z,2.92
2023-01-31T15:03:52.980Z,3.17
2023-01-31T15:06:30.193Z,3.65
2023-01-31T15:09:16.012Z,3.17
2023-01-31T15:11:48.462Z,3.10
2023-01-31T15:14:37.828Z,3.00
2023-01-31T15:17:27.605Z,2.72
2023-01-31T15:20:04.010Z,2.80
2023-01-31T15:22:51.290Z,3.47
2023-01-31T15:25:43.535Z,3.10
2023-01-31T15:28:17.101Z,2.72
2023-01-31T15:30:44.782Z,3.60
2023-01-31T15:33:22.363Z,3.78
2023-01-31T15:36:26.537Z,3.63
2023-01-31T15:38:56.791Z,4.15
2023-01-31T15:41:25.257Z,2.75
2023-01-31T15:43:56.924Z,2.85
2023-01-31T15:46:23.806Z,6.18
2023-01-31T15:48:51.352Z,3.90
2023-01-31T15:51:18.821Z,3.72
2023-01-31T15:53:47.169Z,3.25
2023-01-31T15:56:23.091Z,3.60
2023-01-31T15:58:55.430Z,3.58
2023-01-31T16:01:22.274Z,4.07
2023-01-31T16:03:55.192Z,4.30
2023-01-31T16:06:29.429Z,4.25
2023-01-31T16:09:01.761Z,3.63
2023-01-31T16:11:34.223Z,3.75
2023-01-31T16:14:05.767Z,3.40
2023-01-31T16:16:35.023Z,3.92
2023-01-31T16:19:02.464Z,3.70
2023-01-31T16:21:40.716Z,3.72
2023-01-31T16:24:16.827Z,3.58
2023-01-31T16:26:55.248Z,3.95
2023-01-31T16:29:24.802Z,4.10
2023-01-31T16:31:54.346Z,3.33
2023-01-31T16:34:24.248Z,3.45
2023-01-31T16:36:50.973Z,3.53
2023-01-31T16:39:35.749Z,4.25
2023-01-31T16:42:23.765Z,4.07
2023-01-31T16:44:51.028Z,4.05
2023-01-31T16:47:46.955Z,4.57
2023-01-31T16:50:22.629Z,3.70
2023-01-31T16:53:06.355Z,4.35
2023-01-31T16:55:33.186Z,4.18
2023-01-31T16:57:59.853Z,4.88
2023-01-31T17:00:30.258Z,4.00
2023-01-31T17:02:59.237Z,4.63
2023-01-31T17:05:41.299Z,4.88
2023-01-31T17:08:19.523Z,4.30
2023-01-31T17:10:47.943Z,3.95
2023-01-31T17:13:23.551Z,4.85
2023-01-31T17:15:50.483Z,4.10
2023-01-31T17:18:17.767Z,3.85
2023-01-31T17:20:46.692Z,4.95
2023-01-31T17:23:16.763Z,3.58
2023-01-31T17:25:43.894Z,4.60
2023-01-31T17:28:11.454Z,3.72
2023-01-31T17:30:41.530Z,4.85
2023-01-31T17:33:13.388Z,4.40
2023-01-31T17:35:42.564Z,4.72
2023-01-31T17:38:09.334Z,4.40
2023-01-31T17:40:39.075Z,4.70
2023-01-31T17:43:06.229Z,4.70
2023-01-31T17:45:33.111Z,4.78
2023-01-31T17:48:00.168Z,6.20
2023-01-31T17:50:28.720Z,5.40
2023-01-31T17:52:56.155Z,5.18
2023-01-31T17:55:25.016Z,5.20
2023-01-31T17:57:52.192Z,4.50
2023-01-31T18:00:20.603Z,5.47
2023-01-31T18:02:47.618Z,5.38
2023-01-31T18:05:30.290Z,5.20
2023-01-31T18:08:05.244Z,4.65
2023-01-31T18:10:32.211Z,6.13
2023-01-31T18:12:58.944Z,5.65
2023-01-31T18:15:25.757Z,4.45
2023-01-31T18:17:52.539Z,6.18
2023-01-31T18:20:19.322Z,5.70
2023-01-31T18:22:46.427Z,4.78
2023-01-31T18:25:13.334Z,5.97
2023-01-31T18:27:40.010Z,6.30
2023-01-31T18:30:07.623Z,6.28
2023-01-31T18:32:34.608Z,5.45
2023-01-31T18:35:01.879Z,5.30
2023-01-31T18:37:28.591Z,5.50
2023-01-31T18:39:55.305Z,6.22
2023-01-31T18:42:22.296Z,9.20
2023-01-31T18:44:49.070Z,6.95
2023-01-31T18:47:16.394Z,7.25
2023-01-31T18:49:43.517Z,6.93
2023-01-31T18:52:10.434Z,7.10
2023-01-31T18:54:37.861Z,6.50
2023-01-31T18:57:05.034Z,6.30
2023-01-31T18:59:33.949Z,6.07
2023-01-31T19:02:01.466Z,6.18
2023-01-31T19:04:28.181Z,6.13
2023-01-31T19:06:54.980Z,5.40
2023-01-31T19:09:22.457Z,6.43
2023-01-31T19:11:49.312Z,5.57
2023-01-31T19:14:16.194Z,5.72
2023-01-31T19:16:44.729Z,5.78
2023-01-31T19:19:12.360Z,5.40
2023-01-31T19:21:39.590Z,5.07
2023-01-31T19:24:10.387Z,6.18
2023-01-31T19:26:37.444Z,4.88
2023-01-31T19:29:06.949Z,5.30
2023-01-31T19:31:35.658Z,5.50
2023-01-31T19:34:04.734Z,6.05
2023-01-31T19:36:37.291Z,7.50
2023-01-31T19:39:06.811Z,5.53
2023-01-31T19:41:34.525Z,8.68
2023-01-31T19:44:02.382Z,6.70
2023-01-31T19:46:31.719Z,5.35
2023-01-31T19:48:59.394Z,5.65
2023-01-31T19:51:27.008Z,4.97
2023-01-31T19:54:02.311Z,5.30
2023-01-31T19:56:30.418Z,5.95
2023-01-31T19:58:57.296Z,4.88
2023-01-31T20:01:24.275Z,4.43
2023-01-31T20:03:51.458Z,4.10
2023-01-31T20:06:22.196Z,5.45
2023-01-31T20:08:50.446Z,4.80
2023-01-31T20:11:17.427Z,4.00
2023-01-31T20:13:44.499Z,4.53
2023-01-31T20:16:13.291Z,4.55
2023-01-31T20:18:41.441Z,4.82
2023-01-31T20:21:12.795Z,5.20
2023-01-31T20:23:39.539Z,4.38
2023-01-31T20:26:06.514Z,4.65
2023-01-31T20:28:33.719Z,5.50
2023-01-31T20:31:08.715Z,4.57
2023-01-31T20:33:36.567Z,4.97
2023-01-31T20:36:04.031Z,4.10
2023-01-31T20:38:31.109Z,4.28
2023-01-31T20:40:57.875Z,4.82
2023-01-31T20:43:26.836Z,5.03
2023-01-31T20:45:53.744Z,5.47
2023-01-31T20:48:20.920Z,5.47
2023-01-31T20:50:57.410Z,4.45
2023-01-31T20:53:25.196Z,4.55
2023-01-31T20:56:02.004Z,4.50
2023-01-31T20:58:31.087Z,4.57
2023-01-31T21:00:59.990Z,4.63
2023-01-31T21:03:27.858Z,5.45
2023-01-31T21:05:57.188Z,4.82
2023-01-31T21:08:23.950Z,4.55
2023-01-31T21:10:53.011Z,4.43
2023-01-31T21:13:20.665Z,5.20
2023-01-31T21:15:49.183Z,4.97
2023-01-31T21:18:15.987Z,6.25
2023-01-31T21:20:43.691Z,4.78
2023-01-31T21:23:10.782Z,4.53
2023-01-31T21:25:37.593Z,4.70
2023-01-31T21:28:04.622Z,4.75
2023-01-31T21:30:31.423Z,4.97
2023-01-31T21:32:58.138Z,4.30
2023-01-31T21:35:26.401Z,3.92
2023-01-31T21:37:53.461Z,5.13
2023-01-31T21:40:20.852Z,5.32
2023-01-31T21:42:51.999Z,4.50
2023-01-31T21:45:38.710Z,4.40
2023-01-31T21:48:25.421Z,5.40
2023-01-31T21:50:52.170Z,4.32
2023-01-31T21:53:18.913Z,6.13
2023-01-31T21:55:45.806Z,4.90
2023-01-31T21:58:12.592Z,4.47
2023-01-31T22:00:39.395Z,5.57
2023-01-31T22:03:06.106Z,5.57
2023-01-31T22:05:32.894Z,4.55
2023-01-31T22:07:59.579Z,3.88
2023-01-31T22:10:26.360Z,4.07
2023-01-31T22:12:53.103Z,3.83
2023-01-31T22:15:19.882Z,3.40
2023-01-31T22:17:46.580Z,3.55
2023-01-31T22:20:15.889Z,3.20
2023-01-31T22:22:43.165Z,3.95
2023-01-31T22:25:10.590Z,4.28
2023-01-31T22:27:37.304Z,4.30
2023-01-31T22:30:15.682Z,5.18
2023-01-31T22:32:43.163Z,5.38
2023-01-31T22:35:10.266Z,4.47
2023-01-31T22:37:37.022Z,5.47
2023-01-31T22:40:04.023Z,4.57
2023-01-31T22:42:30.733Z,4.28
2023-01-31T22:44:57.442Z,4.85
2023-01-31T22:47:24.516Z,4.18
2023-01-31T22:49:51.373Z,4.53
2023-01-31T22:52:18.159Z,5.07
2023-01-31T22:54:44.879Z,4.55
2023-01-31T22:57:11.632Z,4.68
2023-01-31T22:59:38.401Z,4.28
2023-01-31T23:02:05.612Z,4.18
2023-01-31T23:04:32.303Z,4.47
2023-01-31T23:06:59.077Z,4.07
2023-01-31T23:09:25.830Z,4.50
2023-01-31T23:11:52.585Z,4.20
2023-01-31T23:14:20.092Z,4.30
2023-01-31T23:17:05.475Z,4.25
2023-01-31T23:19:32.168Z,4.07
2023-01-31T23:21:58.864Z,4.95
2023-01-31T23:24:25.580Z,4.47
2023-01-31T23:26:54.354Z,5.25
2023-01-31T23:29:21.276Z,4.50
2023-01-31T23:31:48.163Z,4.43
2023-01-31T23:34:14.963Z,4.40
2023-01-31T23:36:41.664Z,4.13
2023-01-31T23:39:09.804Z,4.40
2023-01-31T23:41:36.523Z,4.68
2023-01-31T23:44:03.535Z,4.55
2023-01-31T23:46:30.657Z,5.03
2023-01-31T23:48:57.475Z,5.28
2023-01-31T23:51:24.198Z,4.75
2023-01-31T23:53:50.869Z,5.15
2023-01-31T23:56:17.650Z,5.57
2023-01-31T23:58:44.666Z,4.78
